West Lincoln

*Note: All times are displayed in the local standard time of the station location.
**Rain - Equipment is designed to accurately record liquid precipitation; under conditions when precipitation is not in liquid form, the data displayed may not properly reflect rainfall values.

Date Max Temp
(°C)
Min Temp
(°C)
Avg Temp
(°C)
Rain (mm) Avg RH (%)
Mon, Apr 23, 2018 14.0 1.1 8.3 0.0 50.3
Sun, Apr 22, 2018 15.1 -2.7 7.9 0.0 48.6
Sat, Apr 21, 2018 13.5 -3.0 5.0 0.0 60.5
Fri, Apr 20, 2018 8.2 -2.1 2.6 0.0 62.3
Thu, Apr 19, 2018 3.5 -0.7 1.2 0.0 69.7
Wed, Apr 18, 2018 2.9 -0.1 1.2 0.0 81.6
Tue, Apr 17, 2018 0.8 -2.0 -0.3 0.0 80.1
DateTime Avg Temp (°C) Rain (mm) RH (%)
Tue, Apr 24, 2018 18:00 11.7 0.2 83.8
Tue, Apr 24, 2018 17:00 12.8 0.0 72.3
Tue, Apr 24, 2018 16:00 14.7 0.0 54.8
Tue, Apr 24, 2018 15:00 16.3 0.0 46.3
Tue, Apr 24, 2018 14:00 16.3 0.0 45.8
Tue, Apr 24, 2018 13:00 15.6 0.0 46.3
Tue, Apr 24, 2018 12:00 14.4 0.0 49.8
Tue, Apr 24, 2018 11:00 12.5 0.0 60.8
Tue, Apr 24, 2018 10:00 12.1 0.0 66.8
Tue, Apr 24, 2018 09:00 12.1 0.0 67.5
Tue, Apr 24, 2018 08:00 11.0 0.0 69.8
Tue, Apr 24, 2018 07:00 9.8 0.0 72.5
Tue, Apr 24, 2018 06:00 9.8 0.0 71.5
Tue, Apr 24, 2018 05:00 10.3 0.0 67.3
Tue, Apr 24, 2018 04:00 8.9 0.0 69.3
Tue, Apr 24, 2018 03:00 5.9 0.0 75.8
Tue, Apr 24, 2018 02:00 4.4 0.0 81.8
Tue, Apr 24, 2018 01:00 4.2 0.0 83.0
Tue, Apr 24, 2018 00:00 4.2 0.0 83.0
Mon, Apr 23, 2018 23:00 5.0 0.0 70.5
Mon, Apr 23, 2018 22:00 5.7 0.0 65.0
Mon, Apr 23, 2018 21:00 6.3 0.0 60.5
Mon, Apr 23, 2018 20:00 7.4 0.0 57.3
Mon, Apr 23, 2018 19:00 9.4 0.0 50.8
Mon, Apr 23, 2018 18:00 11.3 0.0 46.3
Mon, Apr 23, 2018 17:00 12.7 0.0 42.8
Mon, Apr 23, 2018 16:00 13.4 0.0 41.3
Mon, Apr 23, 2018 15:00 13.6 0.0 40.8
Mon, Apr 23, 2018 14:00 12.7 0.0 44.0
Mon, Apr 23, 2018 13:00 13.1 0.0 42.8
Mon, Apr 23, 2018 12:00 12.2 0.0 50.3
Mon, Apr 23, 2018 11:00 13.3 0.0 42.3
Mon, Apr 23, 2018 10:00 11.2 0.0 44.0
Mon, Apr 23, 2018 09:00 8.6 0.0 49.0
Mon, Apr 23, 2018 08:00 6.2 0.0 50.3
Mon, Apr 23, 2018 07:00 2.3 0.0 61.5
Mon, Apr 23, 2018 06:00 2.4 0.0 57.3
Mon, Apr 23, 2018 05:00 5.6 0.0 38.0
Mon, Apr 23, 2018 04:00 6.5 0.0 37.3
Mon, Apr 23, 2018 03:00 6.4 0.0 39.0
Mon, Apr 23, 2018 02:00 5.1 0.0 48.8
Mon, Apr 23, 2018 01:00 6.0 0.0 45.3
Mon, Apr 23, 2018 00:00 8.8 0.0 32.5
Sun, Apr 22, 2018 23:00 9.8 0.0 30.3
Sun, Apr 22, 2018 22:00 10.2 0.0 29.0
Sun, Apr 22, 2018 21:00 11.5 0.0 25.0
Sun, Apr 22, 2018 20:00 13.1 0.0 25.8
Sun, Apr 22, 2018 19:00 14.7 0.0 22.8


asterix Register now to access more data! asterix